Time;durP1;ratioP1;P1;durP2;ratioP2;P2;SDS_P1;SDS_P2;PMS_P1;PMS_P2;Temp;Humidity;BMP_temperature;BMP_pressure;BME280_temperature;BME280_humidity;BME280_pressure;Samples;Min_cycle;Max_cycle;Signal;HPM_P1;HPM_P2
2021/11/22 00:01:31;;;;;;;4.45;3.00;;;;;;;8.42;65.41;100051.63;6099201;23;20022;-61
2021/11/22 00:03:58;;;;;;;4.78;3.03;;;;;;;8.42;65.62;100056.88;6124737;23;20506;-61
2021/11/22 00:06:25;;;;;;;3.65;3.08;;;;;;;8.43;65.81;100062.06;6124996;23;20026;-60
2021/11/22 00:08:51;;;;;;;4.72;3.30;;;;;;;8.43;65.63;100072.56;6124747;23;20080;-62
2021/11/22 00:11:18;;;;;;;4.20;3.25;;;;;;;8.43;65.77;100067.31;6124806;23;20029;-61
2021/11/22 00:13:45;;;;;;;5.25;3.10;;;;;;;8.45;65.62;100067.25;6125209;23;20498;-60
2021/11/22 00:16:11;;;;;;;7.05;3.55;;;;;;;8.46;65.72;100082.06;6124551;23;20100;-63
2021/11/22 00:18:38;;;;;;;4.65;3.65;;;;;;;8.47;65.50;100081.13;6125092;23;20026;-60
2021/11/22 00:21:05;;;;;;;4.38;3.05;;;;;;;8.47;65.63;100082.00;6124440;23;20029;-60
2021/11/22 00:23:31;;;;;;;3.90;3.17;;;;;;;8.47;65.58;100086.38;6125077;23;20026;-63
2021/11/22 00:25:58;;;;;;;4.00;3.00;;;;;;;8.47;65.79;100081.13;6124882;23;20029;-62
2021/11/22 00:28:25;;;;;;;4.78;3.30;;;;;;;8.48;65.70;100085.47;6124940;23;20025;-61
2021/11/22 00:30:51;;;;;;;3.95;2.97;;;;;;;8.47;65.58;100086.38;6124868;23;20037;-61
2021/11/22 00:33:18;;;;;;;4.07;3.00;;;;;;;8.47;65.66;100092.50;6124890;23;20029;-61
2021/11/22 00:35:48;;;;;;;4.50;3.22;;;;;;;8.45;65.49;100094.31;6124507;23;20451;-61
2021/11/22 00:38:16;;;;;;;4.97;3.30;;;;;;;8.45;65.60;100091.69;6099406;23;20017;-60
2021/11/22 00:40:43;;;;;;;4.03;3.10;;;;;;;8.45;65.56;100099.56;6124471;23;20100;-62
2021/11/22 00:43:10;;;;;;;4.75;3.22;;;;;;;8.43;65.54;100104.03;6098626;23;20026;-61
2021/11/22 00:45:37;;;;;;;3.22;2.92;;;;;;;8.43;65.55;100108.41;6099173;23;20033;-61
2021/11/22 00:48:04;;;;;;;5.45;2.78;;;;;;;8.41;65.48;100111.09;6124212;23;20037;-62
2021/11/22 00:50:33;;;;;;;3.97;3.22;;;;;;;8.41;65.45;100110.25;6098812;23;20025;-62
2021/11/22 00:53:02;;;;;;;4.28;2.90;;;;;;;8.40;65.37;100125.13;6124553;23;20033;-61
2021/11/22 00:55:28;;;;;;;5.53;2.90;;;;;;;8.40;65.26;100130.38;6124483;23;20029;-62
2021/11/22 00:57:55;;;;;;;4.22;2.90;;;;;;;8.37;65.35;100130.50;6124119;23;20029;-61
2021/11/22 01:00:23;;;;;;;6.90;3.08;;;;;;;8.35;65.11;100132.34;6124287;23;20022;-62
2021/11/22 01:02:50;;;;;;;5.00;2.75;;;;;;;8.32;64.92;100135.09;6124199;23;20456;-60
2021/11/22 01:05:17;;;;;;;3.10;2.80;;;;;;;8.29;64.82;100143.09;6098843;23;20022;-62
2021/11/22 01:07:44;;;;;;;3.92;3.08;;;;;;;8.24;64.57;100143.28;6124513;23;20018;-61
2021/11/22 01:10:12;;;;;;;3.50;2.70;;;;;;;8.19;64.88;100145.25;6124383;23;20026;-62
2021/11/22 01:12:39;;;;;;;4.15;2.53;;;;;;;8.14;64.71;100155.91;6098298;23;20029;-61
2021/11/22 01:15:10;;;;;;;3.42;2.33;;;;;;;8.08;64.88;100156.19;6124528;23;20030;-61
2021/11/22 01:17:38;;;;;;;2.80;2.58;;;;;;;8.04;64.74;100165.06;6124406;23;20021;-61
2021/11/22 01:20:07;;;;;;;2.55;2.10;;;;;;;8.00;65.30;100168.72;6098055;23;20494;-61
2021/11/22 01:22:34;;;;;;;3.15;2.63;;;;;;;7.97;65.34;100174.09;6124275;23;20025;-60
2021/11/22 01:25:01;;;;;;;3.15;2.85;;;;;;;7.93;65.26;100176.81;6124451;23;20022;-61
2021/11/22 01:27:45;;;;;;;2.65;2.33;;;;;;;7.91;65.40;100181.28;6123980;23;20037;-64
2021/11/22 01:30:12;;;;;;;3.55;2.80;;;;;;;7.90;65.56;100186.59;6124104;23;20368;-61
2021/11/22 01:32:40;;;;;;;5.25;2.85;;;;;;;7.88;65.53;100202.38;6098106;23;20026;-61
2021/11/22 01:35:08;;;;;;;2.53;2.33;;;;;;;7.87;65.73;100205.03;6123913;23;20036;-62
2021/11/22 01:37:35;;;;;;;4.13;2.58;;;;;;;7.85;65.64;100205.09;6124190;23;20018;-60
2021/11/22 01:40:04;;;;;;;6.85;2.90;;;;;;;7.86;65.68;100211.22;6123824;23;20022;-62
2021/11/22 01:42:31;;;;;;;3.42;2.47;;;;;;;7.86;65.58;100212.06;6098045;23;20022;-61
2021/11/22 01:44:57;;;;;;;4.35;2.90;;;;;;;7.86;65.92;100219.94;6124157;23;20022;-62
2021/11/22 01:47:24;;;;;;;3.40;2.45;;;;;;;7.86;65.74;100221.69;6123858;23;20029;-61
2021/11/22 01:49:51;;;;;;;3.15;2.42;;;;;;;7.86;65.79;100229.56;6123931;23;20047;-61
2021/11/22 01:52:17;;;;;;;3.45;2.75;;;;;;;7.84;65.87;100232.22;6124193;23;20044;-62
2021/11/22 01:54:44;;;;;;;2.90;2.40;;;;;;;7.85;65.60;100233.09;6098054;23;20022;-60
2021/11/22 01:57:11;;;;;;;4.13;2.45;;;;;;;7.83;65.54;100238.41;6124087;23;20033;-61
2021/11/22 01:59:37;;;;;;;4.05;2.60;;;;;;;7.84;65.82;100236.63;6123366;23;20083;-62
2021/11/22 02:02:04;;;;;;;3.00;2.13;;;;;;;7.82;65.86;100240.16;6123911;23;20029;-62
2021/11/22 02:04:32;;;;;;;4.60;2.40;;;;;;;7.82;65.48;100241.94;6097779;23;20471;-60
2021/11/22 02:06:59;;;;;;;4.35;2.20;;;;;;;7.80;65.85;100238.50;6123716;23;20025;-61
2021/11/22 02:09:26;;;;;;;3.17;1.92;;;;;;;7.80;65.51;100238.50;6123353;23;20061;-63
2021/11/22 02:11:53;;;;;;;2.97;1.70;;;;;;;7.77;65.54;100243.84;6123765;23;20025;-62
2021/11/22 02:14:20;;;;;;;2.60;1.75;;;;;;;7.76;65.28;100250.00;6098223;23;20026;-62
2021/11/22 02:16:47;;;;;;;5.15;2.17;;;;;;;7.73;65.23;100258.84;6123557;23;20491;-61
2021/11/22 02:19:14;;;;;;;4.30;2.25;;;;;;;7.70;65.58;100258.94;6097924;23;20605;-61
2021/11/22 02:21:40;;;;;;;2.42;2.00;;;;;;;7.67;65.35;100259.91;6123202;23;20032;-61
2021/11/22 02:24:07;;;;;;;4.38;1.52;;;;;;;7.65;65.66;100261.75;6123692;23;20085;-61
2021/11/22 02:26:34;;;;;;;2.35;1.52;;;;;;;7.63;65.63;100260.09;6123872;23;20328;-61
2021/11/22 02:29:00;;;;;;;2.35;1.80;;;;;;;7.61;65.25;100267.16;6123849;23;20033;-61
2021/11/22 02:31:27;;;;;;;6.85;1.80;;;;;;;7.57;65.43;100263.78;6123063;23;20030;-61
2021/11/22 02:33:54;;;;;;;2.30;1.60;;;;;;;7.53;65.18;100265.69;6123823;23;20041;-61
2021/11/22 02:36:21;;;;;;;2.63;1.90;;;;;;;7.49;65.38;100268.44;6097406;23;20022;-60
2021/11/22 02:38:48;;;;;;;2.95;1.75;;;;;;;7.45;64.87;100272.97;6123424;23;20343;-60
2021/11/22 02:41:16;;;;;;;2.65;2.00;;;;;;;7.39;65.18;100275.78;6097175;23;20452;-61
2021/11/22 02:43:46;;;;;;;3.22;1.70;;;;;;;7.33;65.06;100282.06;6098113;23;20034;-61
2021/11/22 02:46:14;;;;;;;2.08;1.80;;;;;;;7.28;64.84;100282.25;6123327;23;20022;-64
2021/11/22 02:48:41;;;;;;;3.13;1.73;;;;;;;7.23;65.12;100280.69;6097707;23;20057;-62
2021/11/22 02:51:08;;;;;;;2.45;1.77;;;;;;;7.17;65.07;100287.88;6123601;23;20029;-62
2021/11/22 02:53:35;;;;;;;4.85;1.60;;;;;;;7.13;65.38;100285.41;6123416;23;20029;-60
2021/11/22 02:56:06;;;;;;;2.30;1.70;;;;;;;7.07;65.48;100290.84;6097642;23;20029;-61
2021/11/22 02:58:36;;;;;;;2.17;1.65;;;;;;;7.02;65.54;100304.06;6123673;23;20022;-61
2021/11/22 03:01:06;;;;;;;2.70;1.83;;;;;;;6.97;65.33;100301.63;6123426;23;20018;-63
2021/11/22 03:03:34;;;;;;;3.63;1.90;;;;;;;6.94;65.55;100300.84;6123244;23;20018;-61
2021/11/22 03:06:08;;;;;;;3.50;1.95;;;;;;;6.88;65.56;100305.41;6123479;23;20022;-63
2021/11/22 03:08:37;;;;;;;2.80;1.60;;;;;;;6.87;65.54;100308.06;6123457;23;20022;-63
2021/11/22 03:11:04;;;;;;;3.20;1.90;;;;;;;6.84;65.63;100316.88;6097110;23;20033;-61
2021/11/22 03:13:31;;;;;;;2.30;1.70;;;;;;;6.82;65.62;100320.44;6123239;23;20032;-61
2021/11/22 03:15:58;;;;;;;5.50;1.83;;;;;;;6.80;65.79;100325.72;6123390;23;20026;-61
2021/11/22 03:18:25;;;;;;;3.80;1.75;;;;;;;6.78;65.61;100327.53;6123578;23;20025;-62
2021/11/22 03:20:52;;;;;;;2.05;1.50;;;;;;;6.77;65.70;100333.69;6096942;23;20081;-62
2021/11/22 03:23:19;;;;;;;3.45;1.77;;;;;;;6.74;66.16;100328.53;6097490;23;20526;-60
2021/11/22 03:25:46;;;;;;;3.40;1.90;;;;;;;6.73;65.80;100329.47;6097535;23;20029;-61
2021/11/22 03:28:16;;;;;;;2.55;1.60;;;;;;;6.71;65.77;100342.59;6097360;23;20038;-61
2021/11/22 03:30:43;;;;;;;3.28;1.83;;;;;;;6.71;65.85;100341.72;6122897;23;20054;-61
2021/11/22 03:33:16;;;;;;;3.70;1.90;;;;;;;6.71;65.72;100353.03;6098533;23;20046;-61
2021/11/22 03:35:44;;;;;;;2.42;1.95;;;;;;;6.70;65.96;100350.47;6123595;23;20651;-61
2021/11/22 03:38:12;;;;;;;3.45;1.50;;;;;;;6.69;65.87;100359.22;6097652;23;20025;-62
2021/11/22 03:40:41;;;;;;;2.10;1.73;;;;;;;6.67;66.00;100356.66;6097154;23;20037;-61
2021/11/22 03:45:37;;;;;;;4.53;1.75;;;;;;;6.64;65.84;100367.22;6123132;23;20030;-60
2021/11/22 03:48:06;;;;;;;2.92;1.67;;;;;;;6.61;66.05;100362.06;6097407;23;20042;-61
2021/11/22 03:50:33;;;;;;;1.98;1.55;;;;;;;6.59;65.98;100363.88;6097304;23;20026;-61
2021/11/22 03:53:00;;;;;;;2.50;1.45;;;;;;;6.58;66.17;100364.78;6097470;23;20021;-60
2021/11/22 03:55:27;;;;;;;5.53;1.85;;;;;;;6.55;66.01;100363.13;6123248;23;20018;-62
2021/11/22 03:57:54;;;;;;;3.13;2.20;;;;;;;6.53;65.77;100369.31;6097187;23;20029;-62
2021/11/22 04:00:22;;;;;;;3.60;2.00;;;;;;;6.50;66.04;100376.34;6122542;23;20478;-61
2021/11/22 04:02:53;;;;;;;4.55;1.55;;;;;;;6.48;66.13;100372.06;6098302;23;20022;-61
2021/11/22 04:05:19;;;;;;;2.13;1.52;;;;;;;6.44;65.78;100368.69;6122944;23;20026;-61
2021/11/22 04:07:46;;;;;;;2.38;1.95;;;;;;;6.41;65.88;100373.13;6123165;23;20049;-64
2021/11/22 04:10:13;;;;;;;5.78;2.20;;;;;;;6.37;65.94;100381.09;6123143;23;20026;-62
2021/11/22 04:12:39;;;;;;;4.53;2.05;;;;;;;6.34;65.85;100382.91;6123198;23;20040;-62
2021/11/22 04:15:07;;;;;;;4.28;1.90;;;;;;;6.31;65.79;100388.25;6123050;23;20466;-60
2021/11/22 04:17:34;;;;;;;4.03;1.80;;;;;;;6.29;66.11;100393.53;6123192;23;20018;-61
2021/11/22 04:20:01;;;;;;;4.03;2.22;;;;;;;6.25;65.89;100394.53;6097419;23;20026;-65
2021/11/22 04:22:28;;;;;;;2.83;1.90;;;;;;;6.23;65.94;100399.78;6123927;23;20029;-62
2021/11/22 04:24:54;;;;;;;3.33;1.80;;;;;;;6.22;66.03;100405.91;6124852;23;20026;-61
2021/11/22 04:27:21;;;;;;;4.80;2.05;;;;;;;6.20;66.20;100409.47;6124931;23;20025;-62
2021/11/22 04:29:49;;;;;;;2.40;1.85;;;;;;;6.19;66.09;100402.50;6124245;23;20026;-60
2021/11/22 04:32:16;;;;;;;2.47;1.75;;;;;;;6.16;66.07;100411.31;6124927;23;20044;-62
2021/11/22 04:34:42;;;;;;;4.45;2.15;;;;;;;6.15;66.42;100412.22;6124915;23;20022;-60
2021/11/22 04:37:09;;;;;;;3.63;2.05;;;;;;;6.12;66.09;100413.16;6124882;23;20056;-64
2021/11/22 04:39:36;;;;;;;2.95;2.08;;;;;;;6.11;66.21;100432.38;6124298;23;20041;-61
2021/11/22 04:42:02;;;;;;;2.60;2.03;;;;;;;6.10;66.08;100433.25;6124719;23;20022;-60
2021/11/22 04:44:29;;;;;;;4.10;2.25;;;;;;;6.07;66.25;100435.97;6124731;23;20022;-64
2021/11/22 04:46:56;;;;;;;6.18;2.28;;;;;;;6.06;66.02;100444.69;6124778;23;20022;-61
2021/11/22 04:49:22;;;;;;;4.38;2.10;;;;;;;6.05;66.17;100458.66;6123977;23;20459;-61
2021/11/22 04:51:49;;;;;;;2.08;1.73;;;;;;;6.04;66.32;100456.94;6124580;23;20022;-63
2021/11/22 04:54:16;;;;;;;3.05;1.92;;;;;;;6.03;66.31;100460.47;6124583;23;20037;-61
2021/11/22 04:56:42;;;;;;;2.35;1.95;;;;;;;6.02;66.21;100458.69;6124519;23;20022;-61
2021/11/22 04:59:09;;;;;;;2.30;1.77;;;;;;;6.02;66.31;100461.31;6124516;23;20022;-60
2021/11/22 05:01:36;;;;;;;4.25;2.15;;;;;;;6.02;66.23;100463.09;6124148;23;20021;-62
2021/11/22 05:04:03;;;;;;;4.65;2.35;;;;;;;6.01;66.28;100470.06;6124635;23;20022;-61
2021/11/22 05:06:29;;;;;;;5.75;2.10;;;;;;;6.00;66.21;100463.97;6124589;23;20030;-60
2021/11/22 05:08:56;;;;;;;3.58;2.10;;;;;;;6.00;66.14;100465.72;6124254;23;20022;-62
2021/11/22 05:11:23;;;;;;;4.47;2.20;;;;;;;5.99;65.95;100475.31;6098667;23;20487;-60
2021/11/22 05:13:49;;;;;;;4.22;2.10;;;;;;;5.99;66.11;100479.69;6124256;23;20481;-60
2021/11/22 05:16:16;;;;;;;5.82;2.13;;;;;;;5.97;66.18;100482.34;6124252;23;20479;-63
2021/11/22 05:18:43;;;;;;;5.82;2.40;;;;;;;5.97;66.16;100491.94;6124071;23;20456;-61
2021/11/22 05:21:09;;;;;;;3.58;2.40;;;;;;;5.95;66.06;100489.34;6123834;23;20034;-60
2021/11/22 05:23:36;;;;;;;3.55;1.98;;;;;;;5.94;65.95;100487.66;6124339;23;20026;-63
2021/11/22 05:26:03;;;;;;;3.35;2.13;;;;;;;5.92;66.24;100492.06;6124563;23;20022;-61
2021/11/22 05:28:29;;;;;;;2.97;2.00;;;;;;;5.90;65.98;100496.47;6124182;23;20030;-60
2021/11/22 05:30:56;;;;;;;4.30;2.78;;;;;;;5.90;66.39;100511.31;6123670;23;20025;-60
2021/11/22 05:33:23;;;;;;;3.80;2.08;;;;;;;5.89;66.21;100509.56;6123421;23;20355;-61
2021/11/22 05:35:49;;;;;;;4.03;2.80;;;;;;;5.87;66.14;100507.03;6124181;23;20380;-61
2021/11/22 05:38:16;;;;;;;3.65;2.60;;;;;;;5.85;66.31;100504.44;6124067;23;20018;-60
2021/11/22 05:40:43;;;;;;;3.88;2.90;;;;;;;5.85;66.35;100507.06;6097739;23;20025;-62
2021/11/22 05:43:09;;;;;;;3.40;2.92;;;;;;;5.85;66.32;100509.66;6098564;23;20018;-61
2021/11/22 05:45:36;;;;;;;6.93;3.00;;;;;;;5.85;66.40;100511.41;6124146;23;20022;-60
2021/11/22 05:48:06;;;;;;;4.05;2.60;;;;;;;5.84;66.32;100518.38;6124107;23;20029;-62
2021/11/22 05:50:34;;;;;;;3.28;2.67;;;;;;;5.83;66.17;100516.66;6123480;23;20022;-60
2021/11/22 05:53:02;;;;;;;3.22;2.47;;;;;;;5.82;66.08;100517.56;6097986;23;20033;-62
2021/11/22 05:55:34;;;;;;;4.13;2.55;;;;;;;5.81;66.33;100521.09;6098243;23;20022;-60
2021/11/22 05:58:06;;;;;;;4.00;3.25;;;;;;;5.78;66.21;100521.16;6124134;23;20028;-63
2021/11/22 06:00:34;;;;;;;5.47;2.20;;;;;;;5.76;65.80;100536.03;6123658;23;20026;-63
2021/11/22 06:03:01;;;;;;;3.97;2.72;;;;;;;5.74;66.07;100536.06;6124259;23;20030;-59
2021/11/22 06:05:28;;;;;;;6.75;2.50;;;;;;;5.70;65.79;100529.19;6097983;23;20324;-60
2021/11/22 06:07:55;;;;;;;4.18;2.17;;;;;;;5.67;65.73;100531.88;6123964;23;20021;-64
2021/11/22 06:10:21;;;;;;;5.63;2.65;;;;;;;5.65;65.72;100543.25;6123747;23;20097;-61
2021/11/22 06:12:48;;;;;;;7.00;2.42;;;;;;;5.61;66.03;100548.53;6124115;23;20130;-61
2021/11/22 06:15:15;;;;;;;4.07;2.75;;;;;;;5.60;65.89;100559.88;6123918;23;20059;-61
2021/11/22 06:17:41;;;;;;;3.50;2.60;;;;;;;5.57;66.10;100566.94;6123833;23;20029;-61
2021/11/22 06:20:09;;;;;;;4.53;2.90;;;;;;;5.55;66.08;100569.59;6123529;23;20455;-60
2021/11/22 06:22:36;;;;;;;3.88;3.10;;;;;;;5.54;66.25;100573.09;6123131;23;20033;-63
2021/11/22 06:25:05;;;;;;;5.95;3.17;;;;;;;5.53;66.22;100573.97;6097911;23;20026;-60
2021/11/22 06:27:31;;;;;;;4.25;3.10;;;;;;;5.52;66.39;100580.09;6123340;23;20026;-63
2021/11/22 06:29:58;;;;;;;7.45;3.35;;;;;;;5.52;66.48;100587.94;6123647;23;20355;-61
2021/11/22 06:32:27;;;;;;;5.90;4.32;;;;;;;5.54;66.43;100588.78;6123557;23;20475;-61
2021/11/22 06:34:55;;;;;;;16.48;3.95;;;;;;;5.54;66.57;100594.00;6098427;23;20069;-61
2021/11/22 06:37:25;;;;;;;10.70;3.90;;;;;;;5.54;66.38;100591.38;6097939;23;20026;-60
2021/11/22 06:39:53;;;;;;;7.30;4.78;;;;;;;5.54;66.31;100598.34;6097294;23;20458;-61
2021/11/22 06:42:21;;;;;;;17.75;5.75;;;;;;;5.55;66.07;100600.06;6123568;23;20032;-60
2021/11/22 06:44:49;;;;;;;8.02;4.68;;;;;;;5.55;66.37;100608.75;6097907;23;20034;-63
2021/11/22 06:47:16;;;;;;;16.35;4.93;;;;;;;5.56;66.17;100618.31;6122900;23;20022;-60
2021/11/22 06:49:43;;;;;;;9.60;4.85;;;;;;;5.56;66.46;100620.91;6122973;23;20030;-61
2021/11/22 06:52:10;;;;;;;21.33;5.03;;;;;;;5.57;66.42;100627.84;6123148;23;20467;-73
2021/11/22 06:54:37;;;;;;;15.43;4.78;;;;;;;5.58;66.36;100633.94;6097375;23;20022;-61
2021/11/22 06:57:04;;;;;;;6.90;4.78;;;;;;;5.61;66.60;100642.56;6123464;23;20018;-61
2021/11/22 06:59:34;;;;;;;38.47;6.38;;;;;;;5.61;66.66;100637.34;6122805;23;20475;-60
2021/11/22 07:02:01;;;;;;;13.25;5.28;;;;;;;5.64;66.65;100641.63;6123112;23;20026;-67
2021/11/22 07:04:28;;;;;;;18.25;5.35;;;;;;;5.65;66.64;100643.38;6097386;23;20113;-62
2021/11/22 07:06:55;;;;;;;14.52;5.60;;;;;;;5.68;66.56;100652.91;6123396;23;20029;-61
2021/11/22 07:09:23;;;;;;;24.02;5.82;;;;;;;5.69;66.72;100652.00;6123096;23;20029;-61
2021/11/22 07:11:49;;;;;;;26.90;6.15;;;;;;;5.70;66.82;100664.16;6097008;23;20460;-61
2021/11/22 07:14:16;;;;;;;10.23;5.60;;;;;;;5.72;66.77;100663.22;6122289;23;20026;-61
2021/11/22 07:16:43;;;;;;;21.70;6.22;;;;;;;5.74;66.72;100666.69;6122253;23;20022;-60
2021/11/22 07:19:10;;;;;;;20.05;6.13;;;;;;;5.76;66.36;100669.25;6122683;23;20027;-62
2021/11/22 07:21:36;;;;;;;23.30;5.60;;;;;;;5.77;66.84;100668.34;6123322;23;20036;-63
2021/11/22 07:24:05;;;;;;;13.77;5.72;;;;;;;5.80;66.60;100680.50;6123045;23;20025;-62
2021/11/22 07:26:32;;;;;;;35.75;7.07;;;;;;;5.82;66.76;100689.13;6123131;23;20456;-60
2021/11/22 07:29:01;;;;;;;25.92;6.10;;;;;;;5.83;66.39;100694.34;6123157;23;20025;-63
2021/11/22 07:31:28;;;;;;;18.02;6.00;;;;;;;5.85;66.71;100707.38;6097446;23;20025;-61
2021/11/22 07:33:55;;;;;;;11.77;5.60;;;;;;;5.86;66.49;100699.50;6122855;23;20033;-63
2021/11/22 07:36:22;;;;;;;10.82;5.10;;;;;;;5.87;66.65;100703.81;6123452;23;20026;-61
2021/11/22 07:38:49;;;;;;;8.30;4.60;;;;;;;5.89;66.67;100714.25;6123166;23;20030;-63
2021/11/22 07:41:17;;;;;;;12.68;4.53;;;;;;;5.91;66.84;100722.06;6096763;23;20018;-60
2021/11/22 07:43:44;;;;;;;11.30;5.38;;;;;;;5.93;66.59;100722.88;6097121;23;20022;-60
2021/11/22 07:46:10;;;;;;;13.02;5.20;;;;;;;5.94;66.79;100725.47;6122973;23;20025;-60
2021/11/22 07:48:37;;;;;;;23.98;5.88;;;;;;;5.97;66.77;100725.41;6122830;23;20045;-63
2021/11/22 07:51:04;;;;;;;11.93;5.03;;;;;;;6.00;66.70;100729.69;6122602;23;20026;-61
2021/11/22 07:53:35;;;;;;;30.45;5.93;;;;;;;6.03;66.92;100724.44;6122830;23;20052;-61
2021/11/22 07:56:03;;;;;;;29.80;6.72;;;;;;;6.05;66.73;100730.47;6096849;23;20579;-61
2021/11/22 07:58:30;;;;;;;19.42;5.22;;;;;;;6.07;66.80;100723.47;6098640;23;20018;-61
2021/11/22 08:00:57;;;;;;;37.53;6.22;;;;;;;6.09;66.91;100732.13;6124138;23;20018;-62
2021/11/22 08:03:24;;;;;;;7.40;5.65;;;;;;;6.11;66.76;100737.31;6124646;23;20018;-62
2021/11/22 08:05:55;;;;;;;31.13;6.55;;;;;;;6.13;66.42;100736.41;6124618;23;20022;-62
2021/11/22 08:08:23;;;;;;;50.95;6.55;;;;;;;6.15;66.77;100743.34;6125257;23;20640;-62
2021/11/22 08:11:06;;;;;;;7.95;4.57;;;;;;;6.16;66.87;100740.69;6123302;23;20037;-61
2021/11/22 08:13:35;;;;;;;33.65;5.53;;;;;;;6.18;66.54;100745.88;6125105;23;20026;-61
2021/11/22 08:16:04;;;;;;;58.25;6.45;;;;;;;6.20;66.65;100749.34;6124036;23;20743;-62
2021/11/22 08:18:31;;;;;;;42.78;5.80;;;;;;;6.20;66.65;100751.97;6124830;23;20483;-61
2021/11/22 08:20:58;;;;;;;44.80;5.70;;;;;;;6.22;66.68;100760.63;6123986;23;20026;-63
2021/11/22 08:23:25;;;;;;;14.75;5.25;;;;;;;6.21;66.58;100772.81;6099234;23;20321;-61
2021/11/22 08:25:51;;;;;;;69.15;7.03;;;;;;;6.23;66.79;100771.03;6125227;23;20025;-62
2021/11/22 08:28:18;;;;;;;28.08;5.00;;;;;;;6.25;66.71;100773.63;6124824;23;20506;-62
2021/11/22 08:30:45;;;;;;;7.63;4.20;;;;;;;6.27;66.62;100776.22;6124480;23;20029;-61
2021/11/22 08:33:15;;;;;;;7.97;5.38;;;;;;;6.30;67.01;100781.34;6124750;23;20030;-65
2021/11/22 08:35:42;;;;;;;10.88;5.38;;;;;;;6.32;66.90;100776.97;6099220;23;20040;-61
2021/11/22 08:38:09;;;;;;;35.72;6.95;;;;;;;6.33;66.80;100774.31;6123210;23;20038;-61
2021/11/22 08:40:40;;;;;;;22.52;6.18;;;;;;;6.37;66.90;100783.81;6124341;23;20022;-61
2021/11/22 08:43:10;;;;;;;45.40;6.53;;;;;;;6.40;66.82;100788.09;6123510;23;20447;-61
2021/11/22 08:45:38;;;;;;;16.65;6.13;;;;;;;6.41;66.84;100788.94;6098802;23;20033;-65
2021/11/22 08:48:06;;;;;;;40.95;5.80;;;;;;;6.42;66.59;100798.53;6124696;23;20033;-62
2021/11/22 08:50:34;;;;;;;31.20;5.78;;;;;;;6.44;66.76;100796.75;6098556;23;20041;-62
2021/11/22 08:53:01;;;;;;;8.45;5.15;;;;;;;6.45;66.71;100799.31;6099188;23;20033;-62
2021/11/22 08:55:28;;;;;;;15.68;5.30;;;;;;;6.47;66.53;100799.28;6124740;23;20018;-61
2021/11/22 08:57:55;;;;;;;20.42;5.18;;;;;;;6.50;66.84;100804.44;6099101;23;20045;-62
2021/11/22 09:00:32;;;;;;;9.48;5.10;;;;;;;6.49;67.08;100806.19;6098535;23;20018;-61
2021/11/22 09:02:59;;;;;;;10.80;5.53;;;;;;;6.54;66.54;100811.31;6124566;23;20121;-64
2021/11/22 09:05:26;;;;;;;17.38;5.22;;;;;;;6.56;66.54;100817.38;6124555;23;20029;-63
2021/11/22 09:07:53;;;;;;;8.55;5.10;;;;;;;6.59;66.46;100817.31;6123478;23;20022;-61
2021/11/22 09:10:21;;;;;;;7.00;4.65;;;;;;;6.61;66.65;100815.50;6123895;23;20022;-61
2021/11/22 09:12:49;;;;;;;8.77;5.25;;;;;;;6.63;66.64;100824.19;6122824;23;20032;-61
2021/11/22 09:15:16;;;;;;;11.02;5.50;;;;;;;6.67;66.74;100832.84;6098612;23;20022;-62
2021/11/22 09:17:44;;;;;;;9.40;5.63;;;;;;;6.70;66.53;100834.50;6122895;23;20026;-61
2021/11/22 09:20:11;;;;;;;9.30;5.35;;;;;;;6.73;66.81;100837.06;6124377;23;20029;-61
2021/11/22 09:22:39;;;;;;;10.10;5.57;;;;;;;6.76;66.46;100839.59;6098268;23;20029;-61
2021/11/22 09:25:08;;;;;;;7.95;4.63;;;;;;;6.77;66.43;100850.03;6124354;23;20096;-62
2021/11/22 09:27:35;;;;;;;9.23;4.50;;;;;;;6.79;66.28;100860.47;6098286;23;20029;-60
2021/11/22 09:30:03;;;;;;;5.97;4.25;;;;;;;6.79;66.02;100855.22;6098321;23;20482;-64
2021/11/22 09:32:30;;;;;;;4.10;3.25;;;;;;;6.79;65.91;100847.38;6122413;23;20105;-61
2021/11/22 09:34:57;;;;;;;5.55;3.95;;;;;;;6.80;66.06;100856.94;6124483;23;20439;-62
2021/11/22 09:37:23;;;;;;;5.07;3.45;;;;;;;6.80;66.20;100856.09;6124398;23;20025;-62
2021/11/22 09:39:52;;;;;;;5.63;3.28;;;;;;;6.81;66.17;100865.66;6123889;23;20026;-61
2021/11/22 09:42:18;;;;;;;5.03;2.90;;;;;;;6.80;65.93;100863.94;6098429;23;20036;-61
2021/11/22 09:44:45;;;;;;;4.55;3.40;;;;;;;6.80;66.01;100866.56;6124228;23;20018;-61
2021/11/22 09:47:13;;;;;;;4.38;3.08;;;;;;;6.78;66.14;100872.69;6123987;23;20032;-62
2021/11/22 09:49:40;;;;;;;9.27;3.38;;;;;;;6.80;66.36;100871.81;6123581;23;20026;-61
2021/11/22 09:52:06;;;;;;;4.25;2.80;;;;;;;6.81;66.60;100870.91;6124030;23;20029;-63
2021/11/22 09:54:33;;;;;;;4.25;2.63;;;;;;;6.81;66.53;100863.91;6124159;23;20462;-61
2021/11/22 09:57:00;;;;;;;4.75;3.33;;;;;;;6.85;66.37;100864.69;6124180;23;20029;-61
2021/11/22 09:59:27;;;;;;;6.60;2.72;;;;;;;6.87;66.38;100863.75;6123351;23;20026;-62
2021/11/22 10:01:55;;;;;;;5.03;2.78;;;;;;;6.89;66.41;100866.34;6124032;23;20025;-61
2021/11/22 10:04:29;;;;;;;4.72;3.00;;;;;;;6.89;66.84;100863.72;6124334;23;20077;-64
2021/11/22 10:07:05;;;;;;;3.75;3.00;;;;;;;6.92;66.34;100876.75;6098097;23;20026;-62
2021/11/22 10:09:40;;;;;;;6.90;3.03;;;;;;;6.96;66.48;100874.91;6123889;23;20398;-61
2021/11/22 10:12:13;;;;;;;4.72;3.05;;;;;;;6.97;66.94;100874.00;6123719;23;20030;-62
2021/11/22 10:14:52;;;;;;;4.07;2.45;;;;;;;6.99;66.61;100875.69;6098019;23;20018;-61
2021/11/22 10:17:22;;;;;;;4.75;2.75;;;;;;;7.04;66.73;100873.81;6123625;23;20479;-61
2021/11/22 10:20:11;;;;;;;4.38;2.50;;;;;;;7.04;66.90;100888.69;6123357;23;20052;-61
2021/11/22 10:22:59;;;;;;;6.68;2.80;;;;;;;7.07;66.96;100886.00;6124098;23;20026;-61
2021/11/22 10:25:38;;;;;;;4.13;2.67;;;;;;;7.12;67.17;100884.13;6097949;23;20455;-61
2021/11/22 10:28:09;;;;;;;3.85;2.33;;;;;;;7.18;66.89;100880.50;6123596;23;20076;-62
2021/11/22 10:30:39;;;;;;;4.15;3.20;;;;;;;7.22;66.93;100884.72;6086087;23;20030;-63
2021/11/22 10:33:08;;;;;;;4.43;2.63;;;;;;;7.27;66.92;100876.78;6098189;23;20018;-61
2021/11/22 10:35:36;;;;;;;5.30;2.30;;;;;;;7.30;66.99;100869.69;6123747;23;20124;-61
2021/11/22 10:38:14;;;;;;;4.55;2.20;;;;;;;7.35;66.56;100876.56;6123692;23;20028;-62
2021/11/22 10:40:45;;;;;;;3.03;2.25;;;;;;;7.40;66.71;100883.41;6123479;23;20036;-63
2021/11/22 10:43:12;;;;;;;4.15;2.75;;;;;;;7.48;67.08;100883.22;6097730;23;20022;-61
2021/11/22 10:45:44;;;;;;;5.50;2.22;;;;;;;7.53;67.21;100877.88;6097675;23;20644;-62
2021/11/22 10:50:50;;;;;;;6.53;2.20;;;;;;;7.73;67.61;100879.13;6121418;23;20026;-62
2021/11/22 10:53:38;;;;;;;3.70;2.20;;;;;;;7.86;67.97;100888.34;6096390;23;20396;-62
2021/11/22 10:56:09;;;;;;;2.97;2.25;;;;;;;8.04;68.22;100884.34;6123521;23;20041;-63
2021/11/22 10:59:07;;;;;;;3.50;2.30;;;;;;;8.26;68.56;100888.13;6123593;23;20044;-61
2021/11/22 11:01:41;;;;;;;4.88;1.83;;;;;;;8.56;69.07;100888.16;6098769;23;20030;-62
2021/11/22 11:04:13;;;;;;;4.85;2.05;;;;;;;8.91;69.95;100886.22;6097581;23;20026;-61
2021/11/22 11:06:50;;;;;;;5.22;2.05;;;;;;;9.35;72.30;100890.06;6123761;23;20049;-61
2021/11/22 11:09:26;;;;;;;3.72;1.90;;;;;;;9.94;71.61;100890.63;6123932;23;20041;-61
2021/11/22 11:12:00;;;;;;;5.22;1.70;;;;;;;10.62;72.77;100889.06;6097443;23;20025;-63
2021/11/22 11:14:30;;;;;;;3.58;1.90;;;;;;;11.40;72.95;100894.69;6097889;23;20022;-62
2021/11/22 11:17:31;;;;;;;3.55;2.20;;;;;;;12.26;67.92;100888.38;6123000;23;20030;-63
2021/11/22 11:20:05;;;;;;;3.05;1.50;;;;;;;13.21;71.04;100890.97;6097317;23;20021;-64
2021/11/22 11:22:32;;;;;;;2.88;1.38;;;;;;;14.04;69.75;100891.19;6123017;23;20033;-63
2021/11/22 11:24:59;;;;;;;5.00;1.73;;;;;;;14.85;67.53;100885.94;6123320;23;20040;-62
2021/11/22 11:27:40;;;;;;;1.60;1.15;;;;;;;15.65;64.39;100882.19;6123438;23;20698;-63
2021/11/22 11:30:08;;;;;;;6.25;1.55;;;;;;;16.40;63.59;100880.31;6122903;23;20032;-63
2021/11/22 11:32:35;;;;;;;1.83;1.20;;;;;;;17.06;61.83;100885.84;6124279;23;20030;-62
2021/11/22 11:35:07;;;;;;;3.80;1.48;;;;;;;17.66;59.92;100885.41;6125720;23;20429;-65
2021/11/22 11:37:59;;;;;;;1.70;0.95;;;;;;;18.27;55.62;100888.38;6125079;23;20049;-64
2021/11/22 11:40:56;;;;;;;1.83;1.08;;;;;;;18.86;54.11;100882.31;6124223;23;20022;-64
2021/11/22 11:43:49;;;;;;;3.38;1.40;;;;;;;19.41;52.81;100883.63;6125048;23;20049;-63